Time;durP1;ratioP1;P1;durP2;ratioP2;P2;SDS_P1;SDS_P2;PMS_P1;PMS_P2;Temp;Humidity;BMP_temperature;BMP_pressure;BME280_temperature;BME280_humidity;BME280_pressure;Samples;Min_cycle;Max_cycle;Signal;HPM_P1;HPM_P2
2023/11/01 00:00:48;;;;;;;11.32;9.98;;;;;;;;;;6158835;23;20032;-81
2023/11/01 00:03:15;;;;;;;14.18;11.57;;;;;;;;;;6159130;23;20013;-79
2023/11/01 00:05:41;;;;;;;16.10;11.93;;;;;;;;;;6155947;23;20021;-79
2023/11/01 00:08:07;;;;;;;13.20;11.00;;;;;;;;;;6131048;23;20080;-79
2023/11/01 00:10:33;;;;;;;14.02;10.57;;;;;;;;;;6103658;23;20017;-79
2023/11/01 00:12:59;;;;;;;14.35;11.43;;;;;;;;;;6127549;23;20010;-79
2023/11/01 00:15:25;;;;;;;12.45;10.05;;;;;;;;;;6153234;23;20370;-80
2023/11/01 00:17:51;;;;;;;12.63;11.32;;;;;;;;;;6153483;23;20462;-81
2023/11/01 00:20:18;;;;;;;15.77;11.13;;;;;;;;;;6127407;23;20095;-79
2023/11/01 00:22:44;;;;;;;12.73;11.45;;;;;;;;;;6101569;23;20009;-80
2023/11/01 00:25:10;;;;;;;16.48;11.13;;;;;;;;;;6154578;23;20025;-81
2023/11/01 00:27:36;;;;;;;13.40;11.68;;;;;;;;;;6134513;23;20477;-80
2023/11/01 00:30:03;;;;;;;11.07;9.98;;;;;;;;;;6155713;23;20064;-80
2023/11/01 00:32:32;;;;;;;12.13;10.85;;;;;;;;;;6105655;23;20378;-79
2023/11/01 00:34:58;;;;;;;10.65;9.55;;;;;;;;;;6104410;23;20018;-80
2023/11/01 00:37:24;;;;;;;14.93;11.38;;;;;;;;;;6128393;23;20016;-80
2023/11/01 00:39:50;;;;;;;12.25;9.48;;;;;;;;;;6155505;23;20017;-81
2023/11/01 00:42:17;;;;;;;11.57;10.13;;;;;;;;;;6081093;23;20481;-81
2023/11/01 00:44:44;;;;;;;11.35;10.07;;;;;;;;;;6155037;23;20462;-80
2023/11/01 00:47:10;;;;;;;9.35;8.45;;;;;;;;;;6129839;23;20100;-80
2023/11/01 00:49:36;;;;;;;10.95;9.68;;;;;;;;;;6129492;23;20477;-80
2023/11/01 00:52:03;;;;;;;10.57;9.57;;;;;;;;;;6155133;23;20220;-81
2023/11/01 00:54:29;;;;;;;15.02;11.60;;;;;;;;;;6127758;23;20013;-80
2023/11/01 00:56:55;;;;;;;12.90;10.75;;;;;;;;;;6127879;23;20076;-80
2023/11/01 00:59:21;;;;;;;11.80;10.63;;;;;;;;;;6157049;23;20024;-79
2023/11/01 01:01:47;;;;;;;14.60;10.68;;;;;;;;;;6106625;23;20009;-82
2023/11/01 01:04:13;;;;;;;12.98;10.65;;;;;;;;;;6155571;23;20029;-80
2023/11/01 01:06:39;;;;;;;9.95;8.45;;;;;;;;;;6156212;23;20021;-80
2023/11/01 01:09:06;;;;;;;12.10;10.40;;;;;;;;;;6128122;23;20017;-79
2023/11/01 01:11:32;;;;;;;12.60;9.85;;;;;;;;;;6128236;23;20013;-80
2023/11/01 01:13:58;;;;;;;17.05;10.88;;;;;;;;;;6154400;23;20071;-80
2023/11/01 01:16:24;;;;;;;16.80;11.20;;;;;;;;;;6155565;23;20014;-81
2023/11/01 01:18:50;;;;;;;12.80;10.85;;;;;;;;;;6105258;23;20534;-80
2023/11/01 01:21:16;;;;;;;13.35;11.07;;;;;;;;;;6155080;23;20009;-80
2023/11/01 01:23:42;;;;;;;11.68;10.55;;;;;;;;;;6158144;23;20047;-80
2023/11/01 01:26:09;;;;;;;13.98;10.55;;;;;;;;;;6104899;23;20048;-79
2023/11/01 01:28:34;;;;;;;12.63;10.75;;;;;;;;;;6103897;23;20013;-80
2023/11/01 01:31:01;;;;;;;16.52;11.82;;;;;;;;;;6154161;23;20375;-80
2023/11/01 01:33:27;;;;;;;16.67;10.32;;;;;;;;;;6108109;23;20016;-81
2023/11/01 01:35:53;;;;;;;14.07;11.52;;;;;;;;;;6147582;23;20010;-80
2023/11/01 01:38:19;;;;;;;11.40;10.32;;;;;;;;;;6153654;23;20029;-80
2023/11/01 01:40:45;;;;;;;11.95;10.77;;;;;;;;;;6172434;23;20013;-81
2023/11/01 01:43:21;;;;;;;12.50;11.23;;;;;;;;;;6172140;23;20017;-81
2023/11/01 01:45:47;;;;;;;12.85;11.38;;;;;;;;;;6135027;23;20047;-80
2023/11/01 01:48:13;;;;;;;12.77;10.15;;;;;;;;;;6131236;23;20021;-80
2023/11/01 01:50:40;;;;;;;8.95;8.15;;;;;;;;;;6155258;23;20075;-80
2023/11/01 01:53:06;;;;;;;11.90;10.52;;;;;;;;;;6129621;23;20018;-82
2023/11/01 01:55:32;;;;;;;13.85;10.38;;;;;;;;;;6173018;23;20009;-81
2023/11/01 01:57:58;;;;;;;10.90;9.90;;;;;;;;;;6144464;23;20019;-82
2023/11/01 02:00:24;;;;;;;13.55;11.43;;;;;;;;;;6114407;23;20014;-80
2023/11/01 02:02:52;;;;;;;14.18;11.02;;;;;;;;;;6169619;23;20525;-80
2023/11/01 02:05:18;;;;;;;13.75;10.88;;;;;;;;;;6125145;23;20032;-81
2023/11/01 02:07:44;;;;;;;13.25;8.85;;;;;;;;;;6150641;23;20037;-81
2023/11/01 02:10:14;;;;;;;11.52;10.13;;;;;;;;;;6145646;23;20096;-80
2023/11/01 02:12:40;;;;;;;11.02;9.82;;;;;;;;;;6117461;23;20009;-80
2023/11/01 02:15:07;;;;;;;14.85;10.15;;;;;;;;;;6142382;23;20145;-81
2023/11/01 02:17:33;;;;;;;11.02;9.52;;;;;;;;;;6160970;23;20013;-81
2023/11/01 02:20:00;;;;;;;10.20;9.15;;;;;;;;;;6157805;23;20482;-82
2023/11/01 02:22:26;;;;;;;10.95;9.48;;;;;;;;;;6109201;23;20013;-82
2023/11/01 02:24:54;;;;;;;11.02;9.88;;;;;;;;;;6134374;23;20049;-82
2023/11/01 02:27:21;;;;;;;11.57;10.38;;;;;;;;;;6134631;23;20016;-81
2023/11/01 02:29:47;;;;;;;11.40;9.73;;;;;;;;;;6132733;23;20014;-82
2023/11/01 02:32:13;;;;;;;12.48;8.30;;;;;;;;;;6158833;23;20013;-79
2023/11/01 02:34:39;;;;;;;13.38;9.02;;;;;;;;;;6134624;23;20013;-80
2023/11/01 02:37:05;;;;;;;9.30;7.82;;;;;;;;;;6137024;23;20366;-81
2023/11/01 02:39:31;;;;;;;11.52;10.40;;;;;;;;;;6160382;23;20363;-80
2023/11/01 02:41:57;;;;;;;10.63;9.52;;;;;;;;;;6170429;23;20017;-80
2023/11/01 02:44:23;;;;;;;10.30;9.25;;;;;;;;;;6122890;23;20033;-81
2023/11/01 02:46:49;;;;;;;10.32;8.80;;;;;;;;;;6163884;23;20068;-81
2023/11/01 02:49:15;;;;;;;11.15;9.85;;;;;;;;;;6161770;23;20020;-82
2023/11/01 02:51:41;;;;;;;12.52;8.68;;;;;;;;;;6166460;23;20017;-82
2023/11/01 02:54:08;;;;;;;11.95;8.95;;;;;;;;;;6138874;23;20101;-80
2023/11/01 02:56:34;;;;;;;10.10;9.10;;;;;;;;;;6168132;23;20020;-81
2023/11/01 02:59:00;;;;;;;13.05;9.77;;;;;;;;;;6146882;23;20013;-82
2023/11/01 03:01:27;;;;;;;10.15;9.15;;;;;;;;;;6120249;23;20014;-81
2023/11/01 03:03:53;;;;;;;9.02;8.13;;;;;;;;;;6167473;23;20021;-79
2023/11/01 03:06:20;;;;;;;11.65;8.23;;;;;;;;;;6141196;23;20024;-81
2023/11/01 03:08:47;;;;;;;12.15;9.93;;;;;;;;;;6116315;23;20021;-80
2023/11/01 03:11:14;;;;;;;10.57;9.40;;;;;;;;;;6134643;23;20045;-81
2023/11/01 03:13:40;;;;;;;8.75;7.80;;;;;;;;;;6114079;23;20005;-81
2023/11/01 03:16:06;;;;;;;11.85;9.95;;;;;;;;;;6176380;23;20069;-82
2023/11/01 03:18:32;;;;;;;13.68;9.80;;;;;;;;;;6148055;23;20010;-82
2023/11/01 03:20:58;;;;;;;13.20;9.63;;;;;;;;;;6167536;23;20088;-82
2023/11/01 03:23:24;;;;;;;11.05;9.52;;;;;;;;;;6152732;23;20023;-80
2023/11/01 03:25:51;;;;;;;13.13;9.20;;;;;;;;;;6153315;23;20112;-79
2023/11/01 03:28:17;;;;;;;9.10;8.20;;;;;;;;;;6127861;23;20095;-80
2023/11/01 03:30:44;;;;;;;10.70;9.43;;;;;;;;;;6128146;23;20013;-81
2023/11/01 03:33:10;;;;;;;15.02;8.60;;;;;;;;;;6130186;23;20422;-82
2023/11/01 03:35:36;;;;;;;14.98;9.43;;;;;;;;;;6138677;23;20014;-80
2023/11/01 03:38:03;;;;;;;11.82;9.38;;;;;;;;;;6130409;23;20009;-81
2023/11/01 03:40:29;;;;;;;14.38;10.02;;;;;;;;;;6107452;23;20022;-81
2023/11/01 03:42:55;;;;;;;9.10;8.27;;;;;;;;;;6160121;23;20525;-81
2023/11/01 03:45:21;;;;;;;9.52;8.63;;;;;;;;;;6155795;23;20363;-81
2023/11/01 03:47:48;;;;;;;13.43;9.65;;;;;;;;;;6105720;23;20017;-81
2023/11/01 03:50:14;;;;;;;11.60;8.98;;;;;;;;;;6155755;23;20022;-80
2023/11/01 03:52:40;;;;;;;11.60;8.85;;;;;;;;;;6129423;23;20017;-81
2023/11/01 03:55:11;;;;;;;14.23;9.15;;;;;;;;;;6155983;23;20072;-81
2023/11/01 03:57:38;;;;;;;12.68;9.07;;;;;;;;;;6134286;23;20443;-82
2023/11/01 04:00:04;;;;;;;12.63;8.38;;;;;;;;;;6159554;23;20107;-82
2023/11/01 04:02:30;;;;;;;10.18;9.02;;;;;;;;;;6104998;23;20013;-82
2023/11/01 04:04:56;;;;;;;11.95;8.85;;;;;;;;;;6154879;23;20089;-81
2023/11/01 04:07:22;;;;;;;10.25;8.98;;;;;;;;;;6155822;23;20009;-81
2023/11/01 04:09:49;;;;;;;11.18;7.88;;;;;;;;;;6130555;23;20023;-81
2023/11/01 04:12:15;;;;;;;10.43;8.98;;;;;;;;;;6153942;23;20049;-80
2023/11/01 04:14:41;;;;;;;9.85;8.82;;;;;;;;;;6131232;23;20013;-82
2023/11/01 04:17:07;;;;;;;14.75;9.43;;;;;;;;;;6157620;23;20021;-81
2023/11/01 04:19:33;;;;;;;12.50;10.80;;;;;;;;;;6158848;23;20024;-78
2023/11/01 04:22:04;;;;;;;12.65;9.88;;;;;;;;;;6157252;23;20010;-80
2023/11/01 04:24:31;;;;;;;12.73;9.20;;;;;;;;;;6136829;23;20021;-81
2023/11/01 04:26:57;;;;;;;12.25;9.95;;;;;;;;;;6180287;23;19998;-83
2023/11/01 04:29:26;;;;;;;10.82;8.68;;;;;;;;;;6174177;23;20029;-81
2023/11/01 04:31:52;;;;;;;11.38;10.25;;;;;;;;;;6170504;23;20145;-79
2023/11/01 04:34:19;;;;;;;15.23;9.80;;;;;;;;;;6156788;23;20013;-80
2023/11/01 04:36:45;;;;;;;9.48;8.50;;;;;;;;;;6130592;23;20477;-80
2023/11/01 04:39:11;;;;;;;13.05;9.27;;;;;;;;;;6153650;23;20017;-79
2023/11/01 04:41:36;;;;;;;12.40;10.18;;;;;;;;;;6129884;23;20020;-79
2023/11/01 04:44:03;;;;;;;11.80;10.10;;;;;;;;;;6129602;23;20013;-81
2023/11/01 04:46:29;;;;;;;12.95;9.68;;;;;;;;;;6131772;23;20120;-80
2023/11/01 04:48:55;;;;;;;13.40;10.23;;;;;;;;;;6129409;23;20010;-81
2023/11/01 04:51:21;;;;;;;14.57;11.43;;;;;;;;;;6154066;23;20017;-81
2023/11/01 04:53:48;;;;;;;17.45;10.82;;;;;;;;;;6128336;23;20013;-82
2023/11/01 04:56:14;;;;;;;9.13;8.13;;;;;;;;;;6159931;23;20366;-82
2023/11/01 04:58:40;;;;;;;12.30;9.30;;;;;;;;;;6132748;23;20037;-81
2023/11/01 05:01:07;;;;;;;10.68;9.57;;;;;;;;;;6108766;23;20017;-81
2023/11/01 05:03:37;;;;;;;9.65;8.65;;;;;;;;;;6131192;23;20046;-80
2023/11/01 05:06:03;;;;;;;10.90;9.90;;;;;;;;;;6106597;23;20486;-81
2023/11/01 05:08:30;;;;;;;16.30;8.80;;;;;;;;;;6131021;23;20010;-82
2023/11/01 05:10:56;;;;;;;7.50;6.63;;;;;;;;;;6158190;23;20017;-82
2023/11/01 05:13:22;;;;;;;10.32;9.27;;;;;;;;;;6134605;23;20009;-80
2023/11/01 05:15:49;;;;;;;14.55;8.63;;;;;;;;;;6108085;23;20013;-82
2023/11/01 05:18:15;;;;;;;8.13;7.32;;;;;;;;;;6133345;23;20013;-82
2023/11/01 05:20:41;;;;;;;13.40;9.93;;;;;;;;;;6132979;23;20618;-82
2023/11/01 05:23:07;;;;;;;12.35;9.18;;;;;;;;;;6106558;23;20042;-81
2023/11/01 05:25:33;;;;;;;10.77;9.43;;;;;;;;;;6129392;23;20428;-79
2023/11/01 05:27:59;;;;;;;13.02;9.23;;;;;;;;;;6127818;23;20016;-80
2023/11/01 05:30:25;;;;;;;12.20;9.80;;;;;;;;;;6154742;23;20334;-80
2023/11/01 05:32:51;;;;;;;10.30;9.20;;;;;;;;;;6129787;23;20423;-81
2023/11/01 05:35:17;;;;;;;13.02;9.48;;;;;;;;;;6155945;23;20017;-82
2023/11/01 05:37:43;;;;;;;9.68;7.13;;;;;;;;;;6155838;23;20022;-81
2023/11/01 05:40:16;;;;;;;12.02;10.63;;;;;;;;;;6128337;23;20021;-81
2023/11/01 05:42:42;;;;;;;10.38;9.32;;;;;;;;;;6131604;23;20085;-81
2023/11/01 05:45:08;;;;;;;13.95;9.07;;;;;;;;;;6155125;23;20021;-80
2023/11/01 05:47:34;;;;;;;12.48;11.30;;;;;;;;;;6081732;23;20017;-80
2023/11/01 05:50:00;;;;;;;17.77;9.38;;;;;;;;;;6130105;23;20067;-82
2023/11/01 05:52:29;;;;;;;12.73;9.63;;;;;;;;;;6106079;23;20371;-81
2023/11/01 05:54:55;;;;;;;13.85;10.32;;;;;;;;;;6155649;23;20040;-81
2023/11/01 05:57:22;;;;;;;12.65;10.63;;;;;;;;;;6105668;23;20013;-81
2023/11/01 05:59:48;;;;;;;9.55;7.88;;;;;;;;;;6132223;23;20455;-82
2023/11/01 06:02:14;;;;;;;13.35;8.68;;;;;;;;;;6105888;23;20020;-80
2023/11/01 06:04:40;;;;;;;13.15;9.65;;;;;;;;;;6156525;23;20080;-81
2023/11/01 06:07:06;;;;;;;16.75;9.45;;;;;;;;;;6154364;23;20016;-80
2023/11/01 06:09:32;;;;;;;11.15;10.10;;;;;;;;;;6129133;23;20126;-81
2023/11/01 06:11:59;;;;;;;11.45;10.27;;;;;;;;;;6156498;23;20009;-81
2023/11/01 06:14:25;;;;;;;15.10;10.77;;;;;;;;;;6163644;23;20045;-82
2023/11/01 06:16:52;;;;;;;10.85;9.65;;;;;;;;;;6157965;23;20017;-77
2023/11/01 06:19:25;;;;;;;12.90;9.45;;;;;;;;;;6132234;23;20013;-81
2023/11/01 06:21:54;;;;;;;9.57;8.52;;;;;;;;;;6116737;23;20010;-81
2023/11/01 06:24:26;;;;;;;15.63;8.43;;;;;;;;;;6168939;23;20025;-80
2023/11/01 06:26:55;;;;;;;8.30;7.47;;;;;;;;;;6138633;23;20010;-80
2023/11/01 06:29:21;;;;;;;9.20;8.20;;;;;;;;;;6164473;23;20017;-81
2023/11/01 06:31:47;;;;;;;10.65;7.07;;;;;;;;;;6166851;23;20025;-84
2023/11/01 06:34:14;;;;;;;10.15;8.02;;;;;;;;;;6109959;23;20017;-77
2023/11/01 06:36:40;;;;;;;9.55;7.47;;;;;;;;;;6155195;23;20009;-77
2023/11/01 06:39:06;;;;;;;8.07;5.88;;;;;;;;;;6137590;23;20013;-82
2023/11/01 06:41:33;;;;;;;9.95;8.10;;;;;;;;;;6174474;23;20081;-82
2023/11/01 06:43:59;;;;;;;9.98;7.63;;;;;;;;;;6152685;23;20013;-84
2023/11/01 06:46:25;;;;;;;8.85;7.38;;;;;;;;;;6178866;23;20077;-83
2023/11/01 06:48:51;;;;;;;11.50;7.60;;;;;;;;;;6177088;23;20061;-83
2023/11/01 06:51:18;;;;;;;10.93;7.30;;;;;;;;;;6149634;23;20044;-83
2023/11/01 06:53:44;;;;;;;16.80;7.10;;;;;;;;;;6170763;23;20021;-82
2023/11/01 06:56:11;;;;;;;14.55;7.07;;;;;;;;;;6143343;23;20013;-82
2023/11/01 06:58:37;;;;;;;9.68;7.60;;;;;;;;;;6148123;23;20017;-82
2023/11/01 07:01:03;;;;;;;8.55;7.13;;;;;;;;;;6173347;23;20544;-83
2023/11/01 07:03:29;;;;;;;9.38;6.18;;;;;;;;;;6170183;23;20072;-83
2023/11/01 07:05:55;;;;;;;10.23;6.45;;;;;;;;;;6136077;23;20029;-82
2023/11/01 07:08:22;;;;;;;9.25;6.95;;;;;;;;;;6086484;23;20056;-82
2023/11/01 07:10:48;;;;;;;9.48;6.30;;;;;;;;;;6140152;23;20018;-81
2023/11/01 07:13:14;;;;;;;10.48;6.88;;;;;;;;;;6143574;23;20020;-81
2023/11/01 07:15:40;;;;;;;10.68;6.30;;;;;;;;;;6155465;23;20009;-83
2023/11/01 07:18:07;;;;;;;8.43;7.43;;;;;;;;;;6178355;23;20025;-83
2023/11/01 07:20:34;;;;;;;8.07;6.10;;;;;;;;;;6171468;23;20014;-83
2023/11/01 07:23:00;;;;;;;9.20;6.50;;;;;;;;;;6141632;23;20017;-82
2023/11/01 07:25:26;;;;;;;9.30;6.18;;;;;;;;;;6142041;23;20021;-82
2023/11/01 07:27:53;;;;;;;13.40;6.88;;;;;;;;;;6165859;23;20069;-82
2023/11/01 07:30:18;;;;;;;12.98;6.50;;;;;;;;;;6143235;23;20059;-83
2023/11/01 07:32:45;;;;;;;12.82;6.43;;;;;;;;;;6140378;23;20029;-84
2023/11/01 07:35:11;;;;;;;7.15;5.13;;;;;;;;;;6139809;23;20017;-82
2023/11/01 07:37:37;;;;;;;12.20;6.30;;;;;;;;;;6173103;23;20004;-83
2023/11/01 07:40:03;;;;;;;16.10;6.80;;;;;;;;;;6134219;23;20019;-82
2023/11/01 07:42:29;;;;;;;9.30;6.28;;;;;;;;;;6144335;23;20043;-82
2023/11/01 07:44:55;;;;;;;13.95;7.57;;;;;;;;;;6140808;23;20025;-81
2023/11/01 07:47:22;;;;;;;10.57;5.63;;;;;;;;;;6139561;23;20036;-82
2023/11/01 07:49:49;;;;;;;12.85;6.88;;;;;;;;;;6140243;23;20020;-81
2023/11/01 07:52:15;;;;;;;5.43;4.47;;;;;;;;;;6165498;23;20017;-82
2023/11/01 07:54:41;;;;;;;13.63;6.18;;;;;;;;;;6139850;23;20036;-82
2023/11/01 07:57:08;;;;;;;9.13;5.43;;;;;;;;;;6166058;23;20016;-83
2023/11/01 07:59:34;;;;;;;9.25;4.85;;;;;;;;;;6113987;23;20021;-81
2023/11/01 08:02:00;;;;;;;7.00;4.97;;;;;;;;;;6142762;23;20016;-83
2023/11/01 08:04:26;;;;;;;11.68;5.75;;;;;;;;;;6141554;23;20077;-80
2023/11/01 08:06:52;;;;;;;9.40;5.03;;;;;;;;;;6166542;23;20013;-84
2023/11/01 08:09:18;;;;;;;7.63;5.47;;;;;;;;;;6140481;23;20013;-83
2023/11/01 08:11:44;;;;;;;11.40;6.05;;;;;;;;;;6164811;23;20009;-82
2023/11/01 08:14:10;;;;;;;10.38;4.90;;;;;;;;;;6140135;23;20021;-82
2023/11/01 08:16:36;;;;;;;7.10;5.90;;;;;;;;;;6140306;23;20080;-82
2023/11/01 08:19:02;;;;;;;11.35;6.00;;;;;;;;;;6140710;23;20017;-82
2023/11/01 08:21:28;;;;;;;10.50;5.80;;;;;;;;;;6138379;23;20013;-82
2023/11/01 08:23:54;;;;;;;11.75;5.63;;;;;;;;;;6166444;23;20017;-80
2023/11/01 08:26:20;;;;;;;10.73;5.60;;;;;;;;;;6140460;23;20071;-82
2023/11/01 08:28:46;;;;;;;10.25;5.75;;;;;;;;;;6138148;23;20064;-82
2023/11/01 08:31:12;;;;;;;9.88;5.40;;;;;;;;;;6169035;23;20567;-82
2023/11/01 08:33:39;;;;;;;7.15;5.25;;;;;;;;;;6168699;23;20357;-83
2023/11/01 08:36:05;;;;;;;10.15;5.82;;;;;;;;;;6143345;23;20017;-80
2023/11/01 08:38:31;;;;;;;14.98;6.05;;;;;;;;;;6093477;23;20009;-82
2023/11/01 08:40:57;;;;;;;11.48;5.93;;;;;;;;;;6144575;23;20024;-82
2023/11/01 08:43:24;;;;;;;9.55;6.30;;;;;;;;;;6173496;23;20014;-83
2023/11/01 08:45:50;;;;;;;14.07;5.30;;;;;;;;;;6170681;23;20099;-82
2023/11/01 08:48:17;;;;;;;6.90;4.68;;;;;;;;;;6145514;23;20073;-81
2023/11/01 08:50:43;;;;;;;9.60;5.90;;;;;;;;;;6173238;23;20013;-82
2023/11/01 08:53:09;;;;;;;7.50;4.93;;;;;;;;;;6143889;23;20052;-82
2023/11/01 08:55:35;;;;;;;7.03;5.55;;;;;;;;;;6173268;23;20009;-82
2023/11/01 08:58:02;;;;;;;9.55;6.00;;;;;;;;;;6171589;23;20013;-82
2023/11/01 09:00:27;;;;;;;8.23;4.90;;;;;;;;;;6124165;23;20119;-83
2023/11/01 09:02:53;;;;;;;10.85;6.30;;;;;;;;;;6150033;23;20013;-83
2023/11/01 09:05:20;;;;;;;12.88;6.43;;;;;;;;;;6170677;23;20072;-83
2023/11/01 09:07:46;;;;;;;7.88;5.70;;;;;;;;;;6151997;23;20020;-82
2023/11/01 09:10:12;;;;;;;11.93;5.60;;;;;;;;;;6148718;23;20028;-83
2023/11/01 09:12:39;;;;;;;9.00;6.65;;;;;;;;;;6173973;23;20000;-82
2023/11/01 09:15:05;;;;;;;5.82;5.30;;;;;;;;;;6100269;23;20013;-83
2023/11/01 09:17:31;;;;;;;8.90;6.00;;;;;;;;;;6172534;23;20056;-82
2023/11/01 09:19:58;;;;;;;6.78;4.65;;;;;;;;;;6147474;23;20018;-82
2023/11/01 09:22:24;;;;;;;9.27;5.35;;;;;;;;;;6146267;23;20013;-83
2023/11/01 09:24:50;;;;;;;8.43;5.22;;;;;;;;;;6149555;23;20047;-82
2023/11/01 09:27:17;;;;;;;15.32;5.63;;;;;;;;;;6171996;23;20025;-82
2023/11/01 09:29:43;;;;;;;9.93;6.57;;;;;;;;;;6168750;23;20017;-81
2023/11/01 09:32:08;;;;;;;11.77;5.78;;;;;;;;;;6171594;23;20016;-82
2023/11/01 09:34:35;;;;;;;11.98;5.45;;;;;;;;;;6174043;23;20013;-81
2023/11/01 09:37:01;;;;;;;12.18;5.95;;;;;;;;;;6123421;23;20010;-84
2023/11/01 09:39:27;;;;;;;15.00;5.32;;;;;;;;;;6146235;23;20017;-81
2023/11/01 09:42:12;;;;;;;10.60;5.63;;;;;;;;;;6124024;23;20085;-82
2023/11/01 09:44:38;;;;;;;12.93;5.35;;;;;;;;;;6147913;23;20021;-82
2023/11/01 09:47:04;;;;;;;14.57;5.97;;;;;;;;;;6173050;23;20069;-83
2023/11/01 09:49:30;;;;;;;7.47;5.82;;;;;;;;;;6177123;23;20017;-81
2023/11/01 09:51:58;;;;;;;12.57;5.47;;;;;;;;;;6174450;23;20122;-81
2023/11/01 09:54:24;;;;;;;7.07;4.25;;;;;;;;;;6174763;23;20017;-81
2023/11/01 09:56:49;;;;;;;12.43;6.10;;;;;;;;;;6176530;23;20072;-82
2023/11/01 09:59:16;;;;;;;13.60;5.80;;;;;;;;;;6179960;23;20017;-80
2023/11/01 10:01:42;;;;;;;15.00;5.63;;;;;;;;;;6179770;23;20013;-82
2023/11/01 10:04:08;;;;;;;12.93;5.70;;;;;;;;;;6176767;23;20010;-82
2023/11/01 10:06:37;;;;;;;6.10;3.83;;;;;;;;;;6158573;23;20006;-82
2023/11/01 10:09:04;;;;;;;9.77;5.38;;;;;;;;;;6152217;23;20014;-81
2023/11/01 10:11:31;;;;;;;11.32;5.00;;;;;;;;;;6150971;23;20065;-82
2023/11/01 10:13:58;;;;;;;5.90;4.00;;;;;;;;;;6146685;23;20014;-82
2023/11/01 10:16:24;;;;;;;8.90;5.32;;;;;;;;;;6170203;23;20021;-82
2023/11/01 10:18:52;;;;;;;7.07;4.68;;;;;;;;;;6143336;23;20017;-82
2023/11/01 10:21:18;;;;;;;6.70;4.53;;;;;;;;;;6142366;23;20013;-82
2023/11/01 10:23:44;;;;;;;12.23;5.07;;;;;;;;;;6118888;23;20017;-83
2023/11/01 10:26:10;;;;;;;11.93;4.57;;;;;;;;;;6141715;23;20045;-82
2023/11/01 10:28:39;;;;;;;7.15;4.50;;;;;;;;;;6165958;23;20371;-81
2023/11/01 10:31:05;;;;;;;9.07;4.82;;;;;;;;;;6163859;23;20017;-83
2023/11/01 10:33:33;;;;;;;6.25;4.72;;;;;;;;;;6139092;23;20016;-81
2023/11/01 10:36:03;;;;;;;6.97;5.15;;;;;;;;;;6137817;23;20069;-81
2023/11/01 10:38:31;;;;;;;6.88;4.60;;;;;;;;;;6146981;23;20136;-81
2023/11/01 10:40:58;;;;;;;5.72;4.90;;;;;;;;;;6144610;23;20013;-81
2023/11/01 10:43:24;;;;;;;8.50;4.18;;;;;;;;;;6167516;23;20065;-81
2023/11/01 10:45:50;;;;;;;9.27;4.80;;;;;;;;;;6167556;23;20094;-82
2023/11/01 10:48:16;;;;;;;7.82;4.47;;;;;;;;;;6140879;23;20013;-81
2023/11/01 10:50:45;;;;;;;7.10;4.70;;;;;;;;;;6168485;23;20077;-82
2023/11/01 10:53:12;;;;;;;4.97;4.15;;;;;;;;;;6148127;23;20045;-82
2023/11/01 10:55:37;;;;;;;9.00;4.50;;;;;;;;;;6171526;23;20040;-80
2023/11/01 10:58:05;;;;;;;7.40;5.03;;;;;;;;;;6141851;23;20029;-82
2023/11/01 11:00:35;;;;;;;7.88;5.50;;;;;;;;;;6175770;23;20014;-82
2023/11/01 11:03:08;;;;;;;9.35;5.30;;;;;;;;;;6128030;23;20037;-81
2023/11/01 11:05:34;;;;;;;8.35;5.05;;;;;;;;;;6124241;23;20021;-82
2023/11/01 11:08:00;;;;;;;6.95;4.25;;;;;;;;;;6141384;23;20068;-81
2023/11/01 11:10:26;;;;;;;9.75;5.03;;;;;;;;;;6092425;23;20017;-82
2023/11/01 11:13:17;;;;;;;11.88;5.10;;;;;;;;;;6095885;23;20029;-81
2023/11/01 11:15:43;;;;;;;;;;;;;;;;;;6147264;23;20024;-81
2023/11/01 11:18:09;;;;;;;9.60;4.82;;;;;;;;;;6170719;23;19908;-81
2023/11/01 11:20:35;;;;;;;9.82;5.40;;;;;;;;;;6114988;23;20009;-80
2023/11/01 11:23:02;;;;;;;8.50;4.70;;;;;;;;;;6164863;23;20025;-82
2023/11/01 11:25:38;;;;;;;9.93;4.65;;;;;;;;;;6137174;23;20021;-80
2023/11/01 11:28:05;;;;;;;9.98;5.05;;;;;;;;;;6172516;23;20013;-82
2023/11/01 11:30:49;;;;;;;10.15;4.65;;;;;;;;;;6139231;23;20076;-81
2023/11/01 11:33:16;;;;;;;5.43;4.38;;;;;;;;;;6162668;23;20116;-81
2023/11/01 11:35:43;;;;;;;8.65;4.85;;;;;;;;;;6166630;23;20013;-82
2023/11/01 11:38:35;;;;;;;6.60;4.75;;;;;;;;;;6140482;23;20006;-80
2023/11/01 11:41:14;;;;;;;6.43;4.68;;;;;;;;;;6162905;23;20473;-82
2023/11/01 11:44:00;;;;;;;9.93;4.80;;;;;;;;;;6139707;23;20060;-82
2023/11/01 11:46:33;;;;;;;7.78;4.68;;;;;;;;;;6091588;23;20021;-82
2023/11/01 11:48:59;;;;;;;14.93;5.05;;;;;;;;;;6136313;23;20029;-81
2023/11/01 11:51:26;;;;;;;11.93;5.18;;;;;;;;;;6164272;23;20049;-81
2023/11/01 11:53:52;;;;;;;8.05;5.00;;;;;;;;;;6133999;23;20121;-82
2023/11/01 11:56:18;;;;;;;6.65;4.88;;;;;;;;;;6137990;23;20017;-82
2023/11/01 11:58:45;;;;;;;13.85;4.75;;;;;;;;;;6137491;23;20010;-82
2023/11/01 12:01:24;;;;;;;8.65;4.50;;;;;;;;;;6158975;23;20045;-82
2023/11/01 12:03:50;;;;;;;6.28;5.00;;;;;;;;;;6162956;23;20084;-81
2023/11/01 12:06:16;;;;;;;4.93;4.47;;;;;;;;;;6158702;23;20346;-83
2023/11/01 12:08:42;;;;;;;8.00;4.50;;;;;;;;;;6157704;23;20405;-82
2023/11/01 12:11:09;;;;;;;8.27;5.45;;;;;;;;;;6160949;23;20025;-81
2023/11/01 12:13:50;;;;;;;9.50;4.85;;;;;;;;;;6169961;23;20014;-81
2023/11/01 12:16:26;;;;;;;6.20;4.65;;;;;;;;;;6116707;23;20040;-79
2023/11/01 12:19:13;;;;;;;5.88;4.50;;;;;;;;;;6167551;23;20013;-81
2023/11/01 12:21:40;;;;;;;4.95;4.45;;;;;;;;;;6170467;23;20106;-81
2023/11/01 12:24:07;;;;;;;10.40;4.78;;;;;;;;;;6142419;23;20041;-82
2023/11/01 12:26:33;;;;;;;9.43;4.40;;;;;;;;;;6139021;23;20036;-82
2023/11/01 12:29:03;;;;;;;8.18;4.55;;;;;;;;;;6137127;23;20018;-82
2023/11/01 12:31:29;;;;;;;7.13;4.22;;;;;;;;;;6140422;23;20454;-81
2023/11/01 12:34:10;;;;;;;6.68;4.13;;;;;;;;;;6088672;23;20005;-82
2023/11/01 12:36:38;;;;;;;10.75;4.63;;;;;;;;;;6115961;23;20016;-80
2023/11/01 12:39:07;;;;;;;10.38;4.75;;;;;;;;;;6138128;23;20017;-82
2023/11/01 12:41:33;;;;;;;12.07;4.20;;;;;;;;;;6136258;23;20013;-81
2023/11/01 12:43:59;;;;;;;4.32;3.70;;;;;;;;;;6136694;23;20017;-81
2023/11/01 12:46:26;;;;;;;5.97;4.55;;;;;;;;;;6133137;23;20372;-82
2023/11/01 12:48:52;;;;;;;8.43;4.28;;;;;;;;;;6158757;23;20060;-81
2023/11/01 12:51:18;;;;;;;7.20;5.30;;;;;;;;;;6133033;23;20028;-81
2023/11/01 12:53:44;;;;;;;8.90;4.50;;;;;;;;;;6116690;23;20073;-82
2023/11/01 12:56:11;;;;;;;7.60;4.93;;;;;;;;;;6122187;23;20014;-81
2023/11/01 12:58:38;;;;;;;8.18;4.95;;;;;;;;;;6149594;23;20009;-81
2023/11/01 13:01:04;;;;;;;14.07;4.88;;;;;;;;;;6121471;23;20017;-81
2023/11/01 13:03:30;;;;;;;7.13;4.80;;;;;;;;;;6134899;23;20013;-81
2023/11/01 13:05:56;;;;;;;7.50;5.10;;;;;;;;;;6163856;23;20022;-80
2023/11/01 13:08:23;;;;;;;8.85;4.80;;;;;;;;;;6136426;23;20140;-82
2023/11/01 13:10:50;;;;;;;7.60;5.07;;;;;;;;;;6138307;23;20020;-82
2023/11/01 13:13:16;;;;;;;9.68;4.82;;;;;;;;;;6087868;23;20010;-80
2023/11/01 13:15:42;;;;;;;13.57;4.90;;;;;;;;;;6137445;23;20917;-81
2023/11/01 13:18:09;;;;;;;12.02;4.90;;;;;;;;;;6171149;23;20009;-82
2023/11/01 13:20:35;;;;;;;8.23;4.88;;;;;;;;;;6166936;23;20013;-81
2023/11/01 13:23:01;;;;;;;11.68;5.45;;;;;;;;;;6115188;23;20015;-82
2023/11/01 13:25:28;;;;;;;7.72;5.03;;;;;;;;;;6163278;23;20151;-81
2023/11/01 13:27:54;;;;;;;6.78;5.15;;;;;;;;;;6137022;23;20024;-80
2023/11/01 13:30:21;;;;;;;11.07;5.20;;;;;;;;;;6089642;23;20024;-80
2023/11/01 13:32:47;;;;;;;6.50;4.68;;;;;;;;;;6138165;23;20013;-81
2023/11/01 13:35:13;;;;;;;9.18;4.78;;;;;;;;;;6111018;23;20113;-80
2023/11/01 13:37:39;;;;;;;9.23;3.97;;;;;;;;;;6088663;23;20029;-81
2023/11/01 13:40:06;;;;;;;6.03;4.03;;;;;;;;;;6160117;23;20013;-80
2023/11/01 13:42:35;;;;;;;6.03;5.03;;;;;;;;;;6158700;23;20013;-81
2023/11/01 13:45:01;;;;;;;9.32;5.35;;;;;;;;;;6131924;23;20076;-80
2023/11/01 13:47:30;;;;;;;8.48;4.43;;;;;;;;;;6086877;23;20009;-81
2023/11/01 13:49:56;;;;;;;9.15;5.65;;;;;;;;;;6109574;23;20532;-81
2023/11/01 13:52:23;;;;;;;12.32;6.53;;;;;;;;;;6134726;23;20077;-82
2023/11/01 13:54:49;;;;;;;6.47;4.97;;;;;;;;;;6162478;23;20014;-81
2023/11/01 13:57:16;;;;;;;13.55;4.93;;;;;;;;;;6161723;23;20041;-79
2023/11/01 13:59:42;;;;;;;7.75;4.95;;;;;;;;;;6164828;23;20037;-82
2023/11/01 14:02:08;;;;;;;10.52;4.82;;;;;;;;;;6134876;23;20013;-81
2023/11/01 14:04:37;;;;;;;5.40;4.35;;;;;;;;;;6112750;23;20084;-81
2023/11/01 14:07:07;;;;;;;5.13;3.60;;;;;;;;;;6162167;23;20064;-80
2023/11/01 14:09:33;;;;;;;10.10;4.55;;;;;;;;;;6157177;23;20017;-81
2023/11/01 14:12:02;;;;;;;6.18;4.90;;;;;;;;;;6110728;23;20016;-83
2023/11/01 14:14:28;;;;;;;5.70;4.97;;;;;;;;;;6136242;23;20009;-81
2023/11/01 14:16:54;;;;;;;8.15;5.10;;;;;;;;;;6132709;23;20092;-80
2023/11/01 14:19:20;;;;;;;6.53;4.00;;;;;;;;;;6126481;23;20439;-78
2023/11/01 14:21:46;;;;;;;4.68;4.28;;;;;;;;;;6157739;23;20352;-81
2023/11/01 14:24:12;;;;;;;10.98;5.13;;;;;;;;;;6134243;23;20009;-79
2023/11/01 14:26:38;;;;;;;7.75;4.13;;;;;;;;;;6154228;23;20280;-81
2023/11/01 14:29:04;;;;;;;5.70;3.50;;;;;;;;;;6155055;23;20022;-81
2023/11/01 14:31:30;;;;;;;9.75;3.53;;;;;;;;;;6105675;23;20044;-80